<?xml version="1.0" encoding="UTF-8" standalone="no" ?>
<gpx xmlns="http://www.topografix.com/GPX/1/1" xmlns:xsi="http://www.w3.org/2001/XMLSchema-instance" xsi:schemaLocation="http://www.topografix.com/GPX/1/1 http://www.topografix.com/GPX/1/1/gpx.xsd" version="1.1" creator="VisuGPX - https://www.visugpx.com">
  <metadata>
    <name>Tête des chaudières</name>
    <desc><![CDATA[Petite tête des chaudières du lundi avec Laurent
]]></desc>
  </metadata>
  <trk>
    <name><![CDATA[Tête des chaudières]]></name>
    <cmt><![CDATA[Profil: Marche (1,0 m | 10 s | 100,0 m)
Nombre de pas: 0]]></cmt>
    <trkseg>
      <trkpt lat="45.01775" lon="5.52976">
        <ele>1290.5</ele>
        <time>2021-12-20T07:58:57.561Z</time>
      </trkpt>
      <trkpt lat="45.01767" lon="5.52981">
        <ele>1290.5</ele>
        <time>2021-12-20T07:59:07.812Z</time>
      </trkpt>
      <trkpt lat="45.01758" lon="5.52988">
        <ele>1290.5</ele>
        <time>2021-12-20T07:59:17.875Z</time>
      </trkpt>
      <trkpt lat="45.01749" lon="5.52997">
        <ele>1290.5</ele>
        <time>2021-12-20T07:59:28.875Z</time>
      </trkpt>
      <trkpt lat="45.0174" lon="5.53004">
        <ele>1290.5</ele>
        <time>2021-12-20T07:59:39.909Z</time>
      </trkpt>
      <trkpt lat="45.01736" lon="5.53004">
        <ele>1290.5</ele>
        <time>2021-12-20T07:59:50.842Z</time>
      </trkpt>
      <trkpt lat="45.01735" lon="5.53004">
        <ele>1290.5</ele>
        <time>2021-12-20T08:00:00.851Z</time>
      </trkpt>
      <trkpt lat="45.01729" lon="5.53006">
        <ele>1290.5</ele>
        <time>2021-12-20T08:00:10.879Z</time>
      </trkpt>
      <trkpt lat="45.01719" lon="5.5301">
        <ele>1290.5</ele>
        <time>2021-12-20T08:00:21.863Z</time>
      </trkpt>
      <trkpt lat="45.01711" lon="5.53015">
        <ele>1289</ele>
        <time>2021-12-20T08:00:32.887Z</time>
      </trkpt>
      <trkpt lat="45.01702" lon="5.53018">
        <ele>1291</ele>
        <time>2021-12-20T08:00:43.029Z</time>
      </trkpt>
      <trkpt lat="45.01696" lon="5.53024">
        <ele>1294</ele>
        <time>2021-12-20T08:00:53.061Z</time>
      </trkpt>
      <trkpt lat="45.01688" lon="5.53028">
        <ele>1296</ele>
        <time>2021-12-20T08:01:03.114Z</time>
      </trkpt>
      <trkpt lat="45.01682" lon="5.53033">
        <ele>1295</ele>
        <time>2021-12-20T08:01:13.128Z</time>
      </trkpt>
      <trkpt lat="45.01676" lon="5.53034">
        <ele>1296</ele>
        <time>2021-12-20T08:01:23.142Z</time>
      </trkpt>
      <trkpt lat="45.01668" lon="5.53036">
        <ele>1299</ele>
        <time>2021-12-20T08:01:33.157Z</time>
      </trkpt>
      <trkpt lat="45.01661" lon="5.53035">
        <ele>1303</ele>
        <time>2021-12-20T08:01:43.161Z</time>
      </trkpt>
      <trkpt lat="45.01646" lon="5.53039">
        <ele>1305</ele>
        <time>2021-12-20T08:01:58.176Z</time>
      </trkpt>
      <trkpt lat="45.01635" lon="5.53043">
        <ele>1308</ele>
        <time>2021-12-20T08:02:09.864Z</time>
      </trkpt>
      <trkpt lat="45.01627" lon="5.53044">
        <ele>1311</ele>
        <time>2021-12-20T08:02:20.886Z</time>
      </trkpt>
      <trkpt lat="45.01618" lon="5.53044">
        <ele>1311</ele>
        <time>2021-12-20T08:02:31.866Z</time>
      </trkpt>
      <trkpt lat="45.01609" lon="5.53042">
        <ele>1315</ele>
        <time>2021-12-20T08:02:42.887Z</time>
      </trkpt>
      <trkpt lat="45.016" lon="5.5304">
        <ele>1318</ele>
        <time>2021-12-20T08:02:53.864Z</time>
      </trkpt>
      <trkpt lat="45.01592" lon="5.53038">
        <ele>1321</ele>
        <time>2021-12-20T08:03:03.878Z</time>
      </trkpt>
      <trkpt lat="45.01584" lon="5.53037">
        <ele>1325</ele>
        <time>2021-12-20T08:03:13.887Z</time>
      </trkpt>
      <trkpt lat="45.01575" lon="5.53038">
        <ele>1326</ele>
        <time>2021-12-20T08:03:24.856Z</time>
      </trkpt>
      <trkpt lat="45.01568" lon="5.53042">
        <ele>1328</ele>
        <time>2021-12-20T08:03:35.843Z</time>
      </trkpt>
      <trkpt lat="45.01562" lon="5.53049">
        <ele>1331</ele>
        <time>2021-12-20T08:03:45.865Z</time>
      </trkpt>
      <trkpt lat="45.01556" lon="5.53052">
        <ele>1329</ele>
        <time>2021-12-20T08:03:56.868Z</time>
      </trkpt>
      <trkpt lat="45.01548" lon="5.53055">
        <ele>1334</ele>
        <time>2021-12-20T08:04:08.336Z</time>
      </trkpt>
      <trkpt lat="45.01542" lon="5.53056">
        <ele>1337</ele>
        <time>2021-12-20T08:04:18.407Z</time>
      </trkpt>
      <trkpt lat="45.01535" lon="5.53059">
        <ele>1340</ele>
        <time>2021-12-20T08:04:28.430Z</time>
      </trkpt>
      <trkpt lat="45.01526" lon="5.53067">
        <ele>1345</ele>
        <time>2021-12-20T08:04:43.503Z</time>
      </trkpt>
      <trkpt lat="45.01522" lon="5.53072">
        <ele>1345</ele>
        <time>2021-12-20T08:04:57.891Z</time>
      </trkpt>
      <trkpt lat="45.01514" lon="5.53076">
        <ele>1346</ele>
        <time>2021-12-20T08:05:08.528Z</time>
      </trkpt>
      <trkpt lat="45.01509" lon="5.53083">
        <ele>1343</ele>
        <time>2021-12-20T08:05:18.548Z</time>
      </trkpt>
      <trkpt lat="45.01501" lon="5.53088">
        <ele>1344</ele>
        <time>2021-12-20T08:05:30.856Z</time>
      </trkpt>
      <trkpt lat="45.01495" lon="5.53093">
        <ele>1348</ele>
        <time>2021-12-20T08:05:40.892Z</time>
      </trkpt>
      <trkpt lat="45.01487" lon="5.53102">
        <ele>1351</ele>
        <time>2021-12-20T08:05:51.862Z</time>
      </trkpt>
      <trkpt lat="45.0148" lon="5.53108">
        <ele>1355</ele>
        <time>2021-12-20T08:06:03.649Z</time>
      </trkpt>
      <trkpt lat="45.01475" lon="5.53113">
        <ele>1356</ele>
        <time>2021-12-20T08:06:13.669Z</time>
      </trkpt>
      <trkpt lat="45.01471" lon="5.53119">
        <ele>1358</ele>
        <time>2021-12-20T08:06:23.756Z</time>
      </trkpt>
      <trkpt lat="45.01465" lon="5.53125">
        <ele>1360</ele>
        <time>2021-12-20T08:06:33.855Z</time>
      </trkpt>
      <trkpt lat="45.01458" lon="5.5313">
        <ele>1360</ele>
        <time>2021-12-20T08:06:44.844Z</time>
      </trkpt>
      <trkpt lat="45.0145" lon="5.53132">
        <ele>1362</ele>
        <time>2021-12-20T08:06:54.850Z</time>
      </trkpt>
      <trkpt lat="45.01444" lon="5.53133">
        <ele>1363</ele>
        <time>2021-12-20T08:07:05.870Z</time>
      </trkpt>
      <trkpt lat="45.01437" lon="5.53135">
        <ele>1362</ele>
        <time>2021-12-20T08:07:16.853Z</time>
      </trkpt>
      <trkpt lat="45.0143" lon="5.5314">
        <ele>1364</ele>
        <time>2021-12-20T08:07:27.856Z</time>
      </trkpt>
      <trkpt lat="45.01423" lon="5.53146">
        <ele>1366</ele>
        <time>2021-12-20T08:07:37.874Z</time>
      </trkpt>
      <trkpt lat="45.01415" lon="5.53149">
        <ele>1366</ele>
        <time>2021-12-20T08:07:48.890Z</time>
      </trkpt>
      <trkpt lat="45.01404" lon="5.53151">
        <ele>1368</ele>
        <time>2021-12-20T08:07:59.869Z</time>
      </trkpt>
      <trkpt lat="45.01396" lon="5.53154">
        <ele>1368</ele>
        <time>2021-12-20T08:08:10.867Z</time>
      </trkpt>
      <trkpt lat="45.01387" lon="5.53156">
        <ele>1369</ele>
        <time>2021-12-20T08:08:20.878Z</time>
      </trkpt>
      <trkpt lat="45.01377" lon="5.53161">
        <ele>1371</ele>
        <time>2021-12-20T08:08:31.875Z</time>
      </trkpt>
      <trkpt lat="45.01368" lon="5.53161">
        <ele>1373</ele>
        <time>2021-12-20T08:08:41.887Z</time>
      </trkpt>
      <trkpt lat="45.01355" lon="5.53162">
        <ele>1376</ele>
        <time>2021-12-20T08:08:54.012Z</time>
      </trkpt>
      <trkpt lat="45.01346" lon="5.5316">
        <ele>1378</ele>
        <time>2021-12-20T08:09:04.103Z</time>
      </trkpt>
      <trkpt lat="45.01336" lon="5.53162">
        <ele>1380</ele>
        <time>2021-12-20T08:09:19.100Z</time>
      </trkpt>
      <trkpt lat="45.01326" lon="5.53161">
        <ele>1382</ele>
        <time>2021-12-20T08:09:29.167Z</time>
      </trkpt>
      <trkpt lat="45.0131" lon="5.53165">
        <ele>1383</ele>
        <time>2021-12-20T08:09:43.877Z</time>
      </trkpt>
      <trkpt lat="45.01299" lon="5.53164">
        <ele>1383</ele>
        <time>2021-12-20T08:09:54.202Z</time>
      </trkpt>
      <trkpt lat="45.0129" lon="5.53162">
        <ele>1384</ele>
        <time>2021-12-20T08:10:04.869Z</time>
      </trkpt>
      <trkpt lat="45.01284" lon="5.53161">
        <ele>1384</ele>
        <time>2021-12-20T08:10:14.884Z</time>
      </trkpt>
      <trkpt lat="45.01274" lon="5.53161">
        <ele>1384</ele>
        <time>2021-12-20T08:10:25.861Z</time>
      </trkpt>
      <trkpt lat="45.01264" lon="5.53154">
        <ele>1387</ele>
        <time>2021-12-20T08:10:39.273Z</time>
      </trkpt>
      <trkpt lat="45.01259" lon="5.53151">
        <ele>1387</ele>
        <time>2021-12-20T08:10:49.281Z</time>
      </trkpt>
      <trkpt lat="45.01246" lon="5.53145">
        <ele>1392</ele>
        <time>2021-12-20T08:11:04.276Z</time>
      </trkpt>
      <trkpt lat="45.01241" lon="5.53145">
        <ele>1399</ele>
        <time>2021-12-20T08:11:14.326Z</time>
      </trkpt>
      <trkpt lat="45.01231" lon="5.53157">
        <ele>1397</ele>
        <time>2021-12-20T08:11:30.855Z</time>
      </trkpt>
      <trkpt lat="45.01226" lon="5.53167">
        <ele>1399</ele>
        <time>2021-12-20T08:11:40.868Z</time>
      </trkpt>
      <trkpt lat="45.01222" lon="5.53177">
        <ele>1397</ele>
        <time>2021-12-20T08:11:51.874Z</time>
      </trkpt>
      <trkpt lat="45.01216" lon="5.53186">
        <ele>1399</ele>
        <time>2021-12-20T08:12:02.846Z</time>
      </trkpt>
      <trkpt lat="45.0121" lon="5.53193">
        <ele>1398</ele>
        <time>2021-12-20T08:12:12.893Z</time>
      </trkpt>
      <trkpt lat="45.01205" lon="5.53202">
        <ele>1399</ele>
        <time>2021-12-20T08:12:23.897Z</time>
      </trkpt>
      <trkpt lat="45.01199" lon="5.53208">
        <ele>1400</ele>
        <time>2021-12-20T08:12:44.857Z</time>
      </trkpt>
      <trkpt lat="45.01198" lon="5.53205">
        <ele>1400</ele>
        <time>2021-12-20T08:13:59.685Z</time>
      </trkpt>
      <trkpt lat="45.01197" lon="5.53205">
        <ele>1401</ele>
        <time>2021-12-20T08:14:33.858Z</time>
      </trkpt>
      <trkpt lat="45.01196" lon="5.53206">
        <ele>1403</ele>
        <time>2021-12-20T08:14:46.852Z</time>
      </trkpt>
      <trkpt lat="45.0119" lon="5.53207">
        <ele>1407</ele>
        <time>2021-12-20T08:14:59.774Z</time>
      </trkpt>
      <trkpt lat="45.01181" lon="5.5321">
        <ele>1413</ele>
        <time>2021-12-20T08:15:14.799Z</time>
      </trkpt>
      <trkpt lat="45.01171" lon="5.53213">
        <ele>1417</ele>
        <time>2021-12-20T08:15:27.854Z</time>
      </trkpt>
      <trkpt lat="45.01157" lon="5.53215">
        <ele>1422</ele>
        <time>2021-12-20T08:15:44.890Z</time>
      </trkpt>
      <trkpt lat="45.01149" lon="5.53214">
        <ele>1425</ele>
        <time>2021-12-20T08:15:54.939Z</time>
      </trkpt>
      <trkpt lat="45.01136" lon="5.53213">
        <ele>1427</ele>
        <time>2021-12-20T08:16:10.867Z</time>
      </trkpt>
      <trkpt lat="45.01128" lon="5.53214">
        <ele>1431</ele>
        <time>2021-12-20T08:16:20.873Z</time>
      </trkpt>
      <trkpt lat="45.01119" lon="5.53218">
        <ele>1433</ele>
        <time>2021-12-20T08:16:31.865Z</time>
      </trkpt>
      <trkpt lat="45.01114" lon="5.53221">
        <ele>1436</ele>
        <time>2021-12-20T08:16:41.866Z</time>
      </trkpt>
      <trkpt lat="45.01106" lon="5.53231">
        <ele>1438</ele>
        <time>2021-12-20T08:16:52.860Z</time>
      </trkpt>
      <trkpt lat="45.01099" lon="5.53236">
        <ele>1439</ele>
        <time>2021-12-20T08:17:05.007Z</time>
      </trkpt>
      <trkpt lat="45.01088" lon="5.53245">
        <ele>1440</ele>
        <time>2021-12-20T08:17:20.003Z</time>
      </trkpt>
      <trkpt lat="45.0108" lon="5.5325">
        <ele>1441</ele>
        <time>2021-12-20T08:17:30.006Z</time>
      </trkpt>
      <trkpt lat="45.01073" lon="5.53258">
        <ele>1441</ele>
        <time>2021-12-20T08:17:43.893Z</time>
      </trkpt>
      <trkpt lat="45.01069" lon="5.53266">
        <ele>1442</ele>
        <time>2021-12-20T08:17:54.894Z</time>
      </trkpt>
      <trkpt lat="45.01063" lon="5.53273">
        <ele>1447</ele>
        <time>2021-12-20T08:18:05.871Z</time>
      </trkpt>
      <trkpt lat="45.01058" lon="5.53283">
        <ele>1447</ele>
        <time>2021-12-20T08:18:15.896Z</time>
      </trkpt>
      <trkpt lat="45.01052" lon="5.53295">
        <ele>1451</ele>
        <time>2021-12-20T08:18:30.109Z</time>
      </trkpt>
      <trkpt lat="45.01047" lon="5.53306">
        <ele>1452</ele>
        <time>2021-12-20T08:18:40.110Z</time>
      </trkpt>
      <trkpt lat="45.01037" lon="5.53315">
        <ele>1457</ele>
        <time>2021-12-20T08:18:55.113Z</time>
      </trkpt>
      <trkpt lat="45.01031" lon="5.53321">
        <ele>1457</ele>
        <time>2021-12-20T08:19:05.222Z</time>
      </trkpt>
      <trkpt lat="45.01021" lon="5.53326">
        <ele>1463</ele>
        <time>2021-12-20T08:19:19.879Z</time>
      </trkpt>
      <trkpt lat="45.01013" lon="5.53331">
        <ele>1464</ele>
        <time>2021-12-20T08:19:30.867Z</time>
      </trkpt>
      <trkpt lat="45.01008" lon="5.53336">
        <ele>1464</ele>
        <time>2021-12-20T08:19:41.874Z</time>
      </trkpt>
      <trkpt lat="45.01001" lon="5.5334">
        <ele>1466</ele>
        <time>2021-12-20T08:19:52.870Z</time>
      </trkpt>
      <trkpt lat="45.00992" lon="5.53341">
        <ele>1469</ele>
        <time>2021-12-20T08:20:03.878Z</time>
      </trkpt>
      <trkpt lat="45.00985" lon="5.53342">
        <ele>1470</ele>
        <time>2021-12-20T08:20:14.857Z</time>
      </trkpt>
      <trkpt lat="45.00977" lon="5.53343">
        <ele>1470</ele>
        <time>2021-12-20T08:20:24.882Z</time>
      </trkpt>
      <trkpt lat="45.00967" lon="5.53343">
        <ele>1474</ele>
        <time>2021-12-20T08:20:35.845Z</time>
      </trkpt>
      <trkpt lat="45.00961" lon="5.53346">
        <ele>1476</ele>
        <time>2021-12-20T08:20:45.867Z</time>
      </trkpt>
      <trkpt lat="45.00953" lon="5.53348">
        <ele>1479</ele>
        <time>2021-12-20T08:20:56.848Z</time>
      </trkpt>
      <trkpt lat="45.00946" lon="5.53351">
        <ele>1481</ele>
        <time>2021-12-20T08:21:07.883Z</time>
      </trkpt>
      <trkpt lat="45.00935" lon="5.53353">
        <ele>1487</ele>
        <time>2021-12-20T08:21:18.868Z</time>
      </trkpt>
      <trkpt lat="45.00929" lon="5.53355">
        <ele>1490</ele>
        <time>2021-12-20T08:21:28.874Z</time>
      </trkpt>
      <trkpt lat="45.0092" lon="5.53357">
        <ele>1489</ele>
        <time>2021-12-20T08:21:39.867Z</time>
      </trkpt>
      <trkpt lat="45.00916" lon="5.53358">
        <ele>1490</ele>
        <time>2021-12-20T08:21:49.875Z</time>
      </trkpt>
      <trkpt lat="45.00909" lon="5.53362">
        <ele>1492</ele>
        <time>2021-12-20T08:22:00.497Z</time>
      </trkpt>
      <trkpt lat="45.00901" lon="5.53359">
        <ele>1489</ele>
        <time>2021-12-20T08:22:10.506Z</time>
      </trkpt>
      <trkpt lat="45.00893" lon="5.53358">
        <ele>1493</ele>
        <time>2021-12-20T08:22:20.578Z</time>
      </trkpt>
      <trkpt lat="45.00885" lon="5.53354">
        <ele>1492</ele>
        <time>2021-12-20T08:22:32.854Z</time>
      </trkpt>
      <trkpt lat="45.00877" lon="5.53357">
        <ele>1494</ele>
        <time>2021-12-20T08:22:42.859Z</time>
      </trkpt>
      <trkpt lat="45.0087" lon="5.53356">
        <ele>1492</ele>
        <time>2021-12-20T08:22:53.854Z</time>
      </trkpt>
      <trkpt lat="45.00863" lon="5.53354">
        <ele>1492</ele>
        <time>2021-12-20T08:23:05.639Z</time>
      </trkpt>
      <trkpt lat="45.00855" lon="5.53354">
        <ele>1496</ele>
        <time>2021-12-20T08:23:24.867Z</time>
      </trkpt>
      <trkpt lat="45.00849" lon="5.53346">
        <ele>1498</ele>
        <time>2021-12-20T08:23:35.744Z</time>
      </trkpt>
      <trkpt lat="45.00843" lon="5.53335">
        <ele>1500</ele>
        <time>2021-12-20T08:23:46.855Z</time>
      </trkpt>
      <trkpt lat="45.00835" lon="5.53327">
        <ele>1504</ele>
        <time>2021-12-20T08:24:00.759Z</time>
      </trkpt>
      <trkpt lat="45.00829" lon="5.53333">
        <ele>1507</ele>
        <time>2021-12-20T08:24:10.829Z</time>
      </trkpt>
      <trkpt lat="45.00823" lon="5.5333">
        <ele>1508</ele>
        <time>2021-12-20T08:24:20.832Z</time>
      </trkpt>
      <trkpt lat="45.00818" lon="5.53324">
        <ele>1509</ele>
        <time>2021-12-20T08:24:30.893Z</time>
      </trkpt>
      <trkpt lat="45.0081" lon="5.53319">
        <ele>1510</ele>
        <time>2021-12-20T08:24:40.904Z</time>
      </trkpt>
      <trkpt lat="45.00799" lon="5.53316">
        <ele>1512</ele>
        <time>2021-12-20T08:24:55.959Z</time>
      </trkpt>
      <trkpt lat="45.00791" lon="5.53326">
        <ele>1515</ele>
        <time>2021-12-20T08:25:09.877Z</time>
      </trkpt>
      <trkpt lat="45.0079" lon="5.53333">
        <ele>1518</ele>
        <time>2021-12-20T08:25:19.894Z</time>
      </trkpt>
      <trkpt lat="45.00785" lon="5.5334">
        <ele>1518</ele>
        <time>2021-12-20T08:25:30.854Z</time>
      </trkpt>
      <trkpt lat="45.00781" lon="5.53356">
        <ele>1520</ele>
        <time>2021-12-20T08:25:46.018Z</time>
      </trkpt>
      <trkpt lat="45.00773" lon="5.53358">
        <ele>1521</ele>
        <time>2021-12-20T08:25:56.051Z</time>
      </trkpt>
      <trkpt lat="45.00761" lon="5.53363">
        <ele>1523</ele>
        <time>2021-12-20T08:26:11.075Z</time>
      </trkpt>
      <trkpt lat="45.00755" lon="5.53362">
        <ele>1523</ele>
        <time>2021-12-20T08:26:22.889Z</time>
      </trkpt>
      <trkpt lat="45.00743" lon="5.53359">
        <ele>1525</ele>
        <time>2021-12-20T08:26:36.058Z</time>
      </trkpt>
      <trkpt lat="45.00733" lon="5.53358">
        <ele>1529</ele>
        <time>2021-12-20T08:26:51.099Z</time>
      </trkpt>
      <trkpt lat="45.00731" lon="5.53362">
        <ele>1530</ele>
        <time>2021-12-20T08:27:01.132Z</time>
      </trkpt>
      <trkpt lat="45.00722" lon="5.53365">
        <ele>1532</ele>
        <time>2021-12-20T08:27:15.869Z</time>
      </trkpt>
      <trkpt lat="45.00714" lon="5.53362">
        <ele>1534</ele>
        <time>2021-12-20T08:27:26.148Z</time>
      </trkpt>
      <trkpt lat="45.00704" lon="5.53363">
        <ele>1537</ele>
        <time>2021-12-20T08:27:37.872Z</time>
      </trkpt>
      <trkpt lat="45.00695" lon="5.53364">
        <ele>1538</ele>
        <time>2021-12-20T08:27:48.894Z</time>
      </trkpt>
      <trkpt lat="45.00686" lon="5.53364">
        <ele>1542</ele>
        <time>2021-12-20T08:27:59.858Z</time>
      </trkpt>
      <trkpt lat="45.00678" lon="5.53362">
        <ele>1544</ele>
        <time>2021-12-20T08:28:10.863Z</time>
      </trkpt>
      <trkpt lat="45.0067" lon="5.53361">
        <ele>1543</ele>
        <time>2021-12-20T08:28:20.871Z</time>
      </trkpt>
      <trkpt lat="45.00663" lon="5.5336">
        <ele>1542</ele>
        <time>2021-12-20T08:28:31.252Z</time>
      </trkpt>
      <trkpt lat="45.00656" lon="5.5336">
        <ele>1544</ele>
        <time>2021-12-20T08:28:41.334Z</time>
      </trkpt>
      <trkpt lat="45.00648" lon="5.53361">
        <ele>1545</ele>
        <time>2021-12-20T08:28:51.848Z</time>
      </trkpt>
      <trkpt lat="45.00641" lon="5.53362">
        <ele>1547</ele>
        <time>2021-12-20T08:29:01.873Z</time>
      </trkpt>
      <trkpt lat="45.00634" lon="5.5336">
        <ele>1548</ele>
        <time>2021-12-20T08:29:12.874Z</time>
      </trkpt>
      <trkpt lat="45.00625" lon="5.53355">
        <ele>1552</ele>
        <time>2021-12-20T08:29:26.359Z</time>
      </trkpt>
      <trkpt lat="45.00619" lon="5.53352">
        <ele>1553</ele>
        <time>2021-12-20T08:29:36.396Z</time>
      </trkpt>
      <trkpt lat="45.00607" lon="5.53347">
        <ele>1555</ele>
        <time>2021-12-20T08:29:51.404Z</time>
      </trkpt>
      <trkpt lat="45.00598" lon="5.5335">
        <ele>1558</ele>
        <time>2021-12-20T08:30:04.869Z</time>
      </trkpt>
      <trkpt lat="45.00592" lon="5.53351">
        <ele>1559</ele>
        <time>2021-12-20T08:30:14.895Z</time>
      </trkpt>
      <trkpt lat="45.00581" lon="5.53347">
        <ele>1562</ele>
        <time>2021-12-20T08:30:31.449Z</time>
      </trkpt>
      <trkpt lat="45.00571" lon="5.5335">
        <ele>1565</ele>
        <time>2021-12-20T08:30:45.870Z</time>
      </trkpt>
      <trkpt lat="45.00565" lon="5.53353">
        <ele>1567</ele>
        <time>2021-12-20T08:30:56.886Z</time>
      </trkpt>
      <trkpt lat="45.00557" lon="5.5336">
        <ele>1567</ele>
        <time>2021-12-20T08:31:07.846Z</time>
      </trkpt>
      <trkpt lat="45.00551" lon="5.53364">
        <ele>1568</ele>
        <time>2021-12-20T08:31:17.866Z</time>
      </trkpt>
      <trkpt lat="45.00543" lon="5.53367">
        <ele>1570</ele>
        <time>2021-12-20T08:31:28.865Z</time>
      </trkpt>
      <trkpt lat="45.00537" lon="5.53366">
        <ele>1572</ele>
        <time>2021-12-20T08:31:39.869Z</time>
      </trkpt>
      <trkpt lat="45.00529" lon="5.53364">
        <ele>1575</ele>
        <time>2021-12-20T08:31:50.882Z</time>
      </trkpt>
      <trkpt lat="45.00524" lon="5.53364">
        <ele>1574</ele>
        <time>2021-12-20T08:32:01.848Z</time>
      </trkpt>
      <trkpt lat="45.00518" lon="5.53367">
        <ele>1575</ele>
        <time>2021-12-20T08:32:11.875Z</time>
      </trkpt>
      <trkpt lat="45.0051" lon="5.53367">
        <ele>1580</ele>
        <time>2021-12-20T08:32:31.609Z</time>
      </trkpt>
      <trkpt lat="45.00502" lon="5.53368">
        <ele>1581</ele>
        <time>2021-12-20T08:32:42.856Z</time>
      </trkpt>
      <trkpt lat="45.00492" lon="5.53367">
        <ele>1585</ele>
        <time>2021-12-20T08:33:01.708Z</time>
      </trkpt>
      <trkpt lat="45.00485" lon="5.53365">
        <ele>1589</ele>
        <time>2021-12-20T08:33:11.722Z</time>
      </trkpt>
      <trkpt lat="45.00479" lon="5.53369">
        <ele>1590</ele>
        <time>2021-12-20T08:33:21.775Z</time>
      </trkpt>
      <trkpt lat="45.00473" lon="5.53372">
        <ele>1594</ele>
        <time>2021-12-20T08:33:31.850Z</time>
      </trkpt>
      <trkpt lat="45.00467" lon="5.53374">
        <ele>1597</ele>
        <time>2021-12-20T08:33:41.903Z</time>
      </trkpt>
      <trkpt lat="45.00459" lon="5.53374">
        <ele>1599</ele>
        <time>2021-12-20T08:33:55.860Z</time>
      </trkpt>
      <trkpt lat="45.00452" lon="5.53377">
        <ele>1599</ele>
        <time>2021-12-20T08:34:11.890Z</time>
      </trkpt>
      <trkpt lat="45.00446" lon="5.53377">
        <ele>1600</ele>
        <time>2021-12-20T08:34:21.935Z</time>
      </trkpt>
      <trkpt lat="45.00439" lon="5.53376">
        <ele>1602</ele>
        <time>2021-12-20T08:34:36.863Z</time>
      </trkpt>
      <trkpt lat="45.00433" lon="5.53374">
        <ele>1601</ele>
        <time>2021-12-20T08:34:46.875Z</time>
      </trkpt>
      <trkpt lat="45.00428" lon="5.53374">
        <ele>1603</ele>
        <time>2021-12-20T08:34:56.955Z</time>
      </trkpt>
      <trkpt lat="45.00425" lon="5.53375">
        <ele>1603</ele>
        <time>2021-12-20T08:35:08.857Z</time>
      </trkpt>
      <trkpt lat="45.00425" lon="5.53386">
        <ele>1604</ele>
        <time>2021-12-20T08:35:18.876Z</time>
      </trkpt>
      <trkpt lat="45.00424" lon="5.53396">
        <ele>1604</ele>
        <time>2021-12-20T08:35:29.869Z</time>
      </trkpt>
      <trkpt lat="45.00424" lon="5.53406">
        <ele>1609</ele>
        <time>2021-12-20T08:35:39.879Z</time>
      </trkpt>
      <trkpt lat="45.00422" lon="5.53406">
        <ele>1612</ele>
        <time>2021-12-20T08:35:50.873Z</time>
      </trkpt>
      <trkpt lat="45.00414" lon="5.53399">
        <ele>1614</ele>
        <time>2021-12-20T08:36:01.850Z</time>
      </trkpt>
      <trkpt lat="45.00409" lon="5.53393">
        <ele>1616</ele>
        <time>2021-12-20T08:36:11.867Z</time>
      </trkpt>
      <trkpt lat="45.00403" lon="5.5339">
        <ele>1618</ele>
        <time>2021-12-20T08:36:22.120Z</time>
      </trkpt>
      <trkpt lat="45.00402" lon="5.53401">
        <ele>1615</ele>
        <time>2021-12-20T08:36:32.876Z</time>
      </trkpt>
      <trkpt lat="45.00404" lon="5.53411">
        <ele>1616</ele>
        <time>2021-12-20T08:36:43.894Z</time>
      </trkpt>
      <trkpt lat="45.00401" lon="5.53415">
        <ele>1618</ele>
        <time>2021-12-20T08:36:54.874Z</time>
      </trkpt>
      <trkpt lat="45.00396" lon="5.53408">
        <ele>1620</ele>
        <time>2021-12-20T08:37:05.872Z</time>
      </trkpt>
      <trkpt lat="45.00389" lon="5.534">
        <ele>1619</ele>
        <time>2021-12-20T08:37:17.186Z</time>
      </trkpt>
      <trkpt lat="45.0038" lon="5.53393">
        <ele>1621</ele>
        <time>2021-12-20T08:37:32.196Z</time>
      </trkpt>
      <trkpt lat="45.00378" lon="5.53396">
        <ele>1621</ele>
        <time>2021-12-20T08:37:42.260Z</time>
      </trkpt>
      <trkpt lat="45.00379" lon="5.53406">
        <ele>1623</ele>
        <time>2021-12-20T08:37:52.271Z</time>
      </trkpt>
      <trkpt lat="45.00383" lon="5.53419">
        <ele>1627</ele>
        <time>2021-12-20T08:38:07.409Z</time>
      </trkpt>
      <trkpt lat="45.00385" lon="5.53432">
        <ele>1632</ele>
        <time>2021-12-20T08:38:19.875Z</time>
      </trkpt>
      <trkpt lat="45.00381" lon="5.53426">
        <ele>1637</ele>
        <time>2021-12-20T08:38:32.387Z</time>
      </trkpt>
      <trkpt lat="45.00373" lon="5.53423">
        <ele>1638</ele>
        <time>2021-12-20T08:38:42.438Z</time>
      </trkpt>
      <trkpt lat="45.00367" lon="5.53419">
        <ele>1640</ele>
        <time>2021-12-20T08:38:52.495Z</time>
      </trkpt>
      <trkpt lat="45.00361" lon="5.53413">
        <ele>1640</ele>
        <time>2021-12-20T08:39:02.495Z</time>
      </trkpt>
      <trkpt lat="45.00352" lon="5.53402">
        <ele>1639</ele>
        <time>2021-12-20T08:39:17.522Z</time>
      </trkpt>
      <trkpt lat="45.00346" lon="5.53396">
        <ele>1644</ele>
        <time>2021-12-20T08:39:27.595Z</time>
      </trkpt>
      <trkpt lat="45.00349" lon="5.5341">
        <ele>1643</ele>
        <time>2021-12-20T08:39:37.599Z</time>
      </trkpt>
      <trkpt lat="45.00351" lon="5.53426">
        <ele>1645</ele>
        <time>2021-12-20T08:39:52.619Z</time>
      </trkpt>
      <trkpt lat="45.00352" lon="5.53438">
        <ele>1646</ele>
        <time>2021-12-20T08:40:04.848Z</time>
      </trkpt>
      <trkpt lat="45.00348" lon="5.53433">
        <ele>1648</ele>
        <time>2021-12-20T08:40:14.857Z</time>
      </trkpt>
      <trkpt lat="45.00341" lon="5.53427">
        <ele>1649</ele>
        <time>2021-12-20T08:40:25.859Z</time>
      </trkpt>
      <trkpt lat="45.00336" lon="5.53421">
        <ele>1652</ele>
        <time>2021-12-20T08:40:36.855Z</time>
      </trkpt>
      <trkpt lat="45.0033" lon="5.53415">
        <ele>1653</ele>
        <time>2021-12-20T08:40:46.857Z</time>
      </trkpt>
      <trkpt lat="45.00329" lon="5.53424">
        <ele>1653</ele>
        <time>2021-12-20T08:40:56.859Z</time>
      </trkpt>
      <trkpt lat="45.0033" lon="5.53435">
        <ele>1656</ele>
        <time>2021-12-20T08:41:07.868Z</time>
      </trkpt>
      <trkpt lat="45.00332" lon="5.53442">
        <ele>1656</ele>
        <time>2021-12-20T08:41:18.883Z</time>
      </trkpt>
      <trkpt lat="45.00333" lon="5.53452">
        <ele>1659</ele>
        <time>2021-12-20T08:41:28.883Z</time>
      </trkpt>
      <trkpt lat="45.00334" lon="5.53462">
        <ele>1661</ele>
        <time>2021-12-20T08:41:39.882Z</time>
      </trkpt>
      <trkpt lat="45.00333" lon="5.53468">
        <ele>1665</ele>
        <time>2021-12-20T08:41:49.882Z</time>
      </trkpt>
      <trkpt lat="45.00326" lon="5.53461">
        <ele>1668</ele>
        <time>2021-12-20T08:42:00.874Z</time>
      </trkpt>
      <trkpt lat="45.00318" lon="5.53451">
        <ele>1671</ele>
        <time>2021-12-20T08:42:17.898Z</time>
      </trkpt>
      <trkpt lat="45.00312" lon="5.53446">
        <ele>1673</ele>
        <time>2021-12-20T08:42:27.901Z</time>
      </trkpt>
      <trkpt lat="45.00307" lon="5.53442">
        <ele>1674</ele>
        <time>2021-12-20T08:42:37.953Z</time>
      </trkpt>
      <trkpt lat="45.00309" lon="5.53453">
        <ele>1675</ele>
        <time>2021-12-20T08:42:52.878Z</time>
      </trkpt>
      <trkpt lat="45.00311" lon="5.53462">
        <ele>1676</ele>
        <time>2021-12-20T08:43:02.893Z</time>
      </trkpt>
      <trkpt lat="45.00312" lon="5.53474">
        <ele>1676</ele>
        <time>2021-12-20T08:43:13.004Z</time>
      </trkpt>
      <trkpt lat="45.00314" lon="5.53483">
        <ele>1677</ele>
        <time>2021-12-20T08:43:23.041Z</time>
      </trkpt>
      <trkpt lat="45.00309" lon="5.53475">
        <ele>1682</ele>
        <time>2021-12-20T08:43:35.874Z</time>
      </trkpt>
      <trkpt lat="45.00302" lon="5.53468">
        <ele>1686</ele>
        <time>2021-12-20T08:43:46.881Z</time>
      </trkpt>
      <trkpt lat="45.00296" lon="5.53462">
        <ele>1683</ele>
        <time>2021-12-20T08:43:57.867Z</time>
      </trkpt>
      <trkpt lat="45.0029" lon="5.53456">
        <ele>1685</ele>
        <time>2021-12-20T08:44:08.134Z</time>
      </trkpt>
      <trkpt lat="45.00284" lon="5.5345">
        <ele>1685</ele>
        <time>2021-12-20T08:44:18.295Z</time>
      </trkpt>
      <trkpt lat="45.00282" lon="5.53459">
        <ele>1684</ele>
        <time>2021-12-20T08:44:28.888Z</time>
      </trkpt>
      <trkpt lat="45.00284" lon="5.53469">
        <ele>1685</ele>
        <time>2021-12-20T08:44:39.854Z</time>
      </trkpt>
      <trkpt lat="45.00286" lon="5.53478">
        <ele>1688</ele>
        <time>2021-12-20T08:44:49.891Z</time>
      </trkpt>
      <trkpt lat="45.00279" lon="5.53471">
        <ele>1688</ele>
        <time>2021-12-20T08:45:00.883Z</time>
      </trkpt>
      <trkpt lat="45.00271" lon="5.53462">
        <ele>1692</ele>
        <time>2021-12-20T08:45:11.869Z</time>
      </trkpt>
      <trkpt lat="45.00264" lon="5.53457">
        <ele>1695</ele>
        <time>2021-12-20T08:45:22.873Z</time>
      </trkpt>
      <trkpt lat="45.00259" lon="5.53453">
        <ele>1694</ele>
        <time>2021-12-20T08:45:32.881Z</time>
      </trkpt>
      <trkpt lat="45.00251" lon="5.53446">
        <ele>1696</ele>
        <time>2021-12-20T08:45:43.472Z</time>
      </trkpt>
      <trkpt lat="45.00243" lon="5.53444">
        <ele>1699</ele>
        <time>2021-12-20T08:45:53.877Z</time>
      </trkpt>
      <trkpt lat="45.00237" lon="5.53445">
        <ele>1697</ele>
        <time>2021-12-20T08:46:17.863Z</time>
      </trkpt>
      <trkpt lat="45.00229" lon="5.53447">
        <ele>1695</ele>
        <time>2021-12-20T08:46:28.496Z</time>
      </trkpt>
      <trkpt lat="45.00225" lon="5.53449">
        <ele>1693</ele>
        <time>2021-12-20T08:46:38.517Z</time>
      </trkpt>
      <trkpt lat="45.00224" lon="5.53452">
        <ele>1692</ele>
        <time>2021-12-20T08:46:49.849Z</time>
      </trkpt>
      <trkpt lat="45.00222" lon="5.53455">
        <ele>1691</ele>
        <time>2021-12-20T08:47:03.543Z</time>
      </trkpt>
      <trkpt lat="45.00216" lon="5.53467">
        <ele>1686</ele>
        <time>2021-12-20T08:47:18.571Z</time>
      </trkpt>
      <trkpt lat="45.00203" lon="5.53477">
        <ele>1687</ele>
        <time>2021-12-20T08:47:30.854Z</time>
      </trkpt>
      <trkpt lat="45.0019" lon="5.53479">
        <ele>1686</ele>
        <time>2021-12-20T08:47:41.857Z</time>
      </trkpt>
      <trkpt lat="45.00193" lon="5.53484">
        <ele>1685</ele>
        <time>2021-12-20T08:48:03.672Z</time>
      </trkpt>
      <trkpt lat="45.00197" lon="5.53502">
        <ele>1681</ele>
        <time>2021-12-20T08:48:13.729Z</time>
      </trkpt>
      <trkpt lat="45.00194" lon="5.53529">
        <ele>1680</ele>
        <time>2021-12-20T08:48:25.863Z</time>
      </trkpt>
      <trkpt lat="45.00192" lon="5.5354">
        <ele>1678</ele>
        <time>2021-12-20T08:48:35.877Z</time>
      </trkpt>
      <trkpt lat="45.0019" lon="5.53547">
        <ele>1678</ele>
        <time>2021-12-20T08:48:46.873Z</time>
      </trkpt>
      <trkpt lat="45.00187" lon="5.53552">
        <ele>1678</ele>
        <time>2021-12-20T08:48:57.873Z</time>
      </trkpt>
      <trkpt lat="45.00185" lon="5.53553">
        <ele>1677</ele>
        <time>2021-12-20T08:49:08.820Z</time>
      </trkpt>
      <trkpt lat="45.00181" lon="5.53558">
        <ele>1678</ele>
        <time>2021-12-20T08:49:28.835Z</time>
      </trkpt>
      <trkpt lat="45.00179" lon="5.53565">
        <ele>1678</ele>
        <time>2021-12-20T08:49:38.885Z</time>
      </trkpt>
      <trkpt lat="45.0017" lon="5.53572">
        <ele>1680</ele>
        <time>2021-12-20T08:49:48.902Z</time>
      </trkpt>
      <trkpt lat="45.00164" lon="5.53582">
        <ele>1681</ele>
        <time>2021-12-20T08:49:58.904Z</time>
      </trkpt>
      <trkpt lat="45.0016" lon="5.53589">
        <ele>1686</ele>
        <time>2021-12-20T08:50:09.853Z</time>
      </trkpt>
      <trkpt lat="45.00158" lon="5.53601">
        <ele>1685</ele>
        <time>2021-12-20T08:50:19.865Z</time>
      </trkpt>
      <trkpt lat="45.00152" lon="5.53612">
        <ele>1682</ele>
        <time>2021-12-20T08:50:30.842Z</time>
      </trkpt>
      <trkpt lat="45.00146" lon="5.53614">
        <ele>1681</ele>
        <time>2021-12-20T08:50:40.888Z</time>
      </trkpt>
      <trkpt lat="45.00146" lon="5.53623">
        <ele>1685</ele>
        <time>2021-12-20T08:50:51.869Z</time>
      </trkpt>
      <trkpt lat="45.00146" lon="5.53634">
        <ele>1686</ele>
        <time>2021-12-20T08:51:02.869Z</time>
      </trkpt>
      <trkpt lat="45.00141" lon="5.53639">
        <ele>1686</ele>
        <time>2021-12-20T08:51:13.891Z</time>
      </trkpt>
      <trkpt lat="45.00139" lon="5.53647">
        <ele>1690</ele>
        <time>2021-12-20T08:51:29.018Z</time>
      </trkpt>
      <trkpt lat="45.00138" lon="5.53651">
        <ele>1696</ele>
        <time>2021-12-20T08:51:45.860Z</time>
      </trkpt>
      <trkpt lat="45.00139" lon="5.53667">
        <ele>1694</ele>
        <time>2021-12-20T08:52:07.869Z</time>
      </trkpt>
      <trkpt lat="45.00134" lon="5.53675">
        <ele>1701</ele>
        <time>2021-12-20T08:52:24.128Z</time>
      </trkpt>
      <trkpt lat="45.00136" lon="5.53688">
        <ele>1705</ele>
        <time>2021-12-20T08:52:39.160Z</time>
      </trkpt>
      <trkpt lat="45.00134" lon="5.53689">
        <ele>1708</ele>
        <time>2021-12-20T08:52:50.840Z</time>
      </trkpt>
      <trkpt lat="45.00128" lon="5.53691">
        <ele>1709</ele>
        <time>2021-12-20T08:53:01.849Z</time>
      </trkpt>
      <trkpt lat="45.00128" lon="5.53694">
        <ele>1709</ele>
        <time>2021-12-20T08:53:12.854Z</time>
      </trkpt>
      <trkpt lat="45.00128" lon="5.53706">
        <ele>1713</ele>
        <time>2021-12-20T08:53:23.846Z</time>
      </trkpt>
      <trkpt lat="45.00129" lon="5.53703">
        <ele>1715</ele>
        <time>2021-12-20T08:53:34.278Z</time>
      </trkpt>
      <trkpt lat="45.00127" lon="5.53706">
        <ele>1718</ele>
        <time>2021-12-20T08:53:44.336Z</time>
      </trkpt>
      <trkpt lat="45.0013" lon="5.53714">
        <ele>1718</ele>
        <time>2021-12-20T08:53:54.858Z</time>
      </trkpt>
      <trkpt lat="45.00134" lon="5.53717">
        <ele>1718</ele>
        <time>2021-12-20T08:54:04.862Z</time>
      </trkpt>
      <trkpt lat="45.00131" lon="5.53723">
        <ele>1719</ele>
        <time>2021-12-20T08:54:14.875Z</time>
      </trkpt>
      <trkpt lat="45.00129" lon="5.53732">
        <ele>1720</ele>
        <time>2021-12-20T08:54:25.877Z</time>
      </trkpt>
      <trkpt lat="45.0013" lon="5.53742">
        <ele>1718</ele>
        <time>2021-12-20T08:54:36.889Z</time>
      </trkpt>
      <trkpt lat="45.00122" lon="5.53751">
        <ele>1716</ele>
        <time>2021-12-20T08:54:49.481Z</time>
      </trkpt>
      <trkpt lat="45.00106" lon="5.53754">
        <ele>1721</ele>
        <time>2021-12-20T08:55:04.461Z</time>
      </trkpt>
      <trkpt lat="45.001" lon="5.53758">
        <ele>1721</ele>
        <time>2021-12-20T08:55:14.478Z</time>
      </trkpt>
      <trkpt lat="45.00097" lon="5.53778">
        <ele>1723</ele>
        <time>2021-12-20T08:55:39.490Z</time>
      </trkpt>
      <trkpt lat="45.00097" lon="5.53784">
        <ele>1727</ele>
        <time>2021-12-20T08:55:49.528Z</time>
      </trkpt>
      <trkpt lat="45.001" lon="5.53797">
        <ele>1727</ele>
        <time>2021-12-20T08:56:00.887Z</time>
      </trkpt>
      <trkpt lat="45.00101" lon="5.53808">
        <ele>1727</ele>
        <time>2021-12-20T08:56:11.870Z</time>
      </trkpt>
      <trkpt lat="45.00105" lon="5.53824">
        <ele>1730</ele>
        <time>2021-12-20T08:56:29.628Z</time>
      </trkpt>
      <trkpt lat="45.00107" lon="5.53832">
        <ele>1732</ele>
        <time>2021-12-20T08:56:39.630Z</time>
      </trkpt>
      <trkpt lat="45.00102" lon="5.53843">
        <ele>1731</ele>
        <time>2021-12-20T08:56:49.675Z</time>
      </trkpt>
      <trkpt lat="45.00089" lon="5.53855">
        <ele>1734</ele>
        <time>2021-12-20T08:57:04.676Z</time>
      </trkpt>
      <trkpt lat="45.00081" lon="5.53857">
        <ele>1731</ele>
        <time>2021-12-20T08:57:14.772Z</time>
      </trkpt>
      <trkpt lat="45.00076" lon="5.53857">
        <ele>1732</ele>
        <time>2021-12-20T08:57:29.851Z</time>
      </trkpt>
      <trkpt lat="45.00069" lon="5.53854">
        <ele>1733</ele>
        <time>2021-12-20T08:57:39.869Z</time>
      </trkpt>
      <trkpt lat="45.00063" lon="5.53847">
        <ele>1735</ele>
        <time>2021-12-20T08:57:49.897Z</time>
      </trkpt>
      <trkpt lat="45.00054" lon="5.5385">
        <ele>1739</ele>
        <time>2021-12-20T08:58:14.877Z</time>
      </trkpt>
      <trkpt lat="45.00049" lon="5.53848">
        <ele>1743</ele>
        <time>2021-12-20T08:58:24.900Z</time>
      </trkpt>
      <trkpt lat="45.0005" lon="5.53854">
        <ele>1745</ele>
        <time>2021-12-20T08:58:39.909Z</time>
      </trkpt>
      <trkpt lat="45.00054" lon="5.53864">
        <ele>1750</ele>
        <time>2021-12-20T08:58:59.932Z</time>
      </trkpt>
      <trkpt lat="45.0005" lon="5.53864">
        <ele>1753</ele>
        <time>2021-12-20T08:59:09.935Z</time>
      </trkpt>
      <trkpt lat="45.00046" lon="5.53864">
        <ele>1753</ele>
        <time>2021-12-20T08:59:19.965Z</time>
      </trkpt>
      <trkpt lat="45.00042" lon="5.53869">
        <ele>1752</ele>
        <time>2021-12-20T08:59:29.967Z</time>
      </trkpt>
      <trkpt lat="45.00047" lon="5.53877">
        <ele>1752</ele>
        <time>2021-12-20T08:59:40.040Z</time>
      </trkpt>
      <trkpt lat="45.00049" lon="5.53884">
        <ele>1754</ele>
        <time>2021-12-20T08:59:53.864Z</time>
      </trkpt>
      <trkpt lat="45.00044" lon="5.53883">
        <ele>1757</ele>
        <time>2021-12-20T09:00:03.872Z</time>
      </trkpt>
      <trkpt lat="45.0004" lon="5.53887">
        <ele>1759</ele>
        <time>2021-12-20T09:00:14.853Z</time>
      </trkpt>
      <trkpt lat="45.00041" lon="5.53891">
        <ele>1763</ele>
        <time>2021-12-20T09:00:30.069Z</time>
      </trkpt>
      <trkpt lat="45.00036" lon="5.53896">
        <ele>1764</ele>
        <time>2021-12-20T09:00:40.141Z</time>
      </trkpt>
      <trkpt lat="45.00031" lon="5.53903">
        <ele>1764</ele>
        <time>2021-12-20T09:00:50.150Z</time>
      </trkpt>
      <trkpt lat="45.00029" lon="5.53912">
        <ele>1767</ele>
        <time>2021-12-20T09:01:07.857Z</time>
      </trkpt>
      <trkpt lat="45.00035" lon="5.53919">
        <ele>1768</ele>
        <time>2021-12-20T09:01:18.854Z</time>
      </trkpt>
      <trkpt lat="45.00029" lon="5.53921">
        <ele>1769</ele>
        <time>2021-12-20T09:01:29.850Z</time>
      </trkpt>
      <trkpt lat="45.00023" lon="5.53917">
        <ele>1769</ele>
        <time>2021-12-20T09:01:40.853Z</time>
      </trkpt>
      <trkpt lat="45.00025" lon="5.53923">
        <ele>1771</ele>
        <time>2021-12-20T09:01:50.864Z</time>
      </trkpt>
      <trkpt lat="45.0003" lon="5.53935">
        <ele>1772</ele>
        <time>2021-12-20T09:02:05.258Z</time>
      </trkpt>
      <trkpt lat="45.00027" lon="5.53934">
        <ele>1775</ele>
        <time>2021-12-20T09:02:15.275Z</time>
      </trkpt>
      <trkpt lat="45.00012" lon="5.53929">
        <ele>1775</ele>
        <time>2021-12-20T09:02:32.870Z</time>
      </trkpt>
      <trkpt lat="45.00004" lon="5.53925">
        <ele>1776</ele>
        <time>2021-12-20T09:02:42.880Z</time>
      </trkpt>
      <trkpt lat="44.99999" lon="5.53921">
        <ele>1779</ele>
        <time>2021-12-20T09:02:53.867Z</time>
      </trkpt>
      <trkpt lat="44.99999" lon="5.53929">
        <ele>1781</ele>
        <time>2021-12-20T09:03:10.345Z</time>
      </trkpt>
      <trkpt lat="45.00003" lon="5.53937">
        <ele>1783</ele>
        <time>2021-12-20T09:03:20.368Z</time>
      </trkpt>
      <trkpt lat="45.00007" lon="5.53943">
        <ele>1787</ele>
        <time>2021-12-20T09:03:30.398Z</time>
      </trkpt>
      <trkpt lat="44.99999" lon="5.5394">
        <ele>1787</ele>
        <time>2021-12-20T09:03:45.411Z</time>
      </trkpt>
      <trkpt lat="44.99994" lon="5.53938">
        <ele>1786</ele>
        <time>2021-12-20T09:03:55.432Z</time>
      </trkpt>
      <trkpt lat="44.99994" lon="5.53943">
        <ele>1788</ele>
        <time>2021-12-20T09:04:06.857Z</time>
      </trkpt>
      <trkpt lat="44.99997" lon="5.5395">
        <ele>1793</ele>
        <time>2021-12-20T09:04:16.871Z</time>
      </trkpt>
      <trkpt lat="45" lon="5.53958">
        <ele>1793</ele>
        <time>2021-12-20T09:04:27.894Z</time>
      </trkpt>
      <trkpt lat="44.99997" lon="5.53958">
        <ele>1792</ele>
        <time>2021-12-20T09:04:38.869Z</time>
      </trkpt>
      <trkpt lat="44.9999" lon="5.53953">
        <ele>1794</ele>
        <time>2021-12-20T09:04:48.889Z</time>
      </trkpt>
      <trkpt lat="44.99982" lon="5.53958">
        <ele>1792</ele>
        <time>2021-12-20T09:05:05.559Z</time>
      </trkpt>
      <trkpt lat="44.99979" lon="5.53968">
        <ele>1795</ele>
        <time>2021-12-20T09:05:20.570Z</time>
      </trkpt>
      <trkpt lat="44.99976" lon="5.53976">
        <ele>1794</ele>
        <time>2021-12-20T09:05:30.597Z</time>
      </trkpt>
      <trkpt lat="44.99968" lon="5.53982">
        <ele>1794</ele>
        <time>2021-12-20T09:05:40.643Z</time>
      </trkpt>
      <trkpt lat="44.99963" lon="5.5399">
        <ele>1795</ele>
        <time>2021-12-20T09:05:50.887Z</time>
      </trkpt>
      <trkpt lat="44.99962" lon="5.54003">
        <ele>1797</ele>
        <time>2021-12-20T09:06:00.894Z</time>
      </trkpt>
      <trkpt lat="44.99961" lon="5.54014">
        <ele>1797</ele>
        <time>2021-12-20T09:06:11.869Z</time>
      </trkpt>
      <trkpt lat="44.99965" lon="5.54023">
        <ele>1799</ele>
        <time>2021-12-20T09:06:22.850Z</time>
      </trkpt>
      <trkpt lat="44.99966" lon="5.54033">
        <ele>1801</ele>
        <time>2021-12-20T09:06:32.873Z</time>
      </trkpt>
      <trkpt lat="44.99965" lon="5.54043">
        <ele>1804</ele>
        <time>2021-12-20T09:06:45.707Z</time>
      </trkpt>
      <trkpt lat="44.99963" lon="5.54055">
        <ele>1806</ele>
        <time>2021-12-20T09:06:55.773Z</time>
      </trkpt>
      <trkpt lat="44.99961" lon="5.54061">
        <ele>1806</ele>
        <time>2021-12-20T09:07:05.800Z</time>
      </trkpt>
      <trkpt lat="44.99958" lon="5.54082">
        <ele>1809</ele>
        <time>2021-12-20T09:07:24.884Z</time>
      </trkpt>
      <trkpt lat="44.99958" lon="5.54093">
        <ele>1810</ele>
        <time>2021-12-20T09:07:35.888Z</time>
      </trkpt>
      <trkpt lat="44.9996" lon="5.54102">
        <ele>1814</ele>
        <time>2021-12-20T09:07:46.880Z</time>
      </trkpt>
      <trkpt lat="44.99964" lon="5.54112">
        <ele>1816</ele>
        <time>2021-12-20T09:07:57.874Z</time>
      </trkpt>
      <trkpt lat="44.99967" lon="5.54121">
        <ele>1815</ele>
        <time>2021-12-20T09:08:08.847Z</time>
      </trkpt>
      <trkpt lat="44.99965" lon="5.54135">
        <ele>1815</ele>
        <time>2021-12-20T09:08:18.888Z</time>
      </trkpt>
      <trkpt lat="44.99954" lon="5.54142">
        <ele>1814</ele>
        <time>2021-12-20T09:08:29.864Z</time>
      </trkpt>
      <trkpt lat="44.99945" lon="5.54147">
        <ele>1816</ele>
        <time>2021-12-20T09:08:40.861Z</time>
      </trkpt>
      <trkpt lat="44.99944" lon="5.54146">
        <ele>1815</ele>
        <time>2021-12-20T09:08:56.857Z</time>
      </trkpt>
      <trkpt lat="44.99937" lon="5.54129">
        <ele>1813</ele>
        <time>2021-12-20T09:09:07.861Z</time>
      </trkpt>
      <trkpt lat="44.99932" lon="5.54146">
        <ele>1812</ele>
        <time>2021-12-20T09:09:18.849Z</time>
      </trkpt>
      <trkpt lat="44.99922" lon="5.54167">
        <ele>1810</ele>
        <time>2021-12-20T09:09:28.861Z</time>
      </trkpt>
      <trkpt lat="44.9991" lon="5.54167">
        <ele>1808</ele>
        <time>2021-12-20T09:09:39.863Z</time>
      </trkpt>
      <trkpt lat="44.99907" lon="5.54164">
        <ele>1807</ele>
        <time>2021-12-20T09:09:56.124Z</time>
      </trkpt>
      <trkpt lat="44.99896" lon="5.54161">
        <ele>1809</ele>
        <time>2021-12-20T09:10:06.217Z</time>
      </trkpt>
      <trkpt lat="44.99886" lon="5.54156">
        <ele>1807</ele>
        <time>2021-12-20T09:10:16.235Z</time>
      </trkpt>
      <trkpt lat="44.99871" lon="5.5415">
        <ele>1805</ele>
        <time>2021-12-20T09:10:31.858Z</time>
      </trkpt>
      <trkpt lat="44.99861" lon="5.54151">
        <ele>1805</ele>
        <time>2021-12-20T09:10:42.847Z</time>
      </trkpt>
      <trkpt lat="44.99852" lon="5.54149">
        <ele>1809</ele>
        <time>2021-12-20T09:10:52.855Z</time>
      </trkpt>
      <trkpt lat="44.99836" lon="5.5414">
        <ele>1809</ele>
        <time>2021-12-20T09:11:11.293Z</time>
      </trkpt>
      <trkpt lat="44.99827" lon="5.54139">
        <ele>1812</ele>
        <time>2021-12-20T09:11:22.868Z</time>
      </trkpt>
      <trkpt lat="44.99816" lon="5.54135">
        <ele>1810</ele>
        <time>2021-12-20T09:11:32.893Z</time>
      </trkpt>
      <trkpt lat="44.99804" lon="5.54132">
        <ele>1812</ele>
        <time>2021-12-20T09:11:43.871Z</time>
      </trkpt>
      <trkpt lat="44.99794" lon="5.54126">
        <ele>1811</ele>
        <time>2021-12-20T09:11:54.886Z</time>
      </trkpt>
      <trkpt lat="44.99784" lon="5.54116">
        <ele>1811</ele>
        <time>2021-12-20T09:12:05.874Z</time>
      </trkpt>
      <trkpt lat="44.9977" lon="5.54107">
        <ele>1812</ele>
        <time>2021-12-20T09:12:16.850Z</time>
      </trkpt>
      <trkpt lat="44.99762" lon="5.54106">
        <ele>1816</ele>
        <time>2021-12-20T09:12:26.873Z</time>
      </trkpt>
      <trkpt lat="44.9975" lon="5.54109">
        <ele>1819</ele>
        <time>2021-12-20T09:12:41.525Z</time>
      </trkpt>
      <trkpt lat="44.99743" lon="5.5411">
        <ele>1817</ele>
        <time>2021-12-20T09:12:51.533Z</time>
      </trkpt>
      <trkpt lat="44.99734" lon="5.54108">
        <ele>1814</ele>
        <time>2021-12-20T09:13:01.566Z</time>
      </trkpt>
      <trkpt lat="44.99726" lon="5.54107">
        <ele>1816</ele>
        <time>2021-12-20T09:13:11.610Z</time>
      </trkpt>
      <trkpt lat="44.99718" lon="5.54105">
        <ele>1818</ele>
        <time>2021-12-20T09:13:21.656Z</time>
      </trkpt>
      <trkpt lat="44.99708" lon="5.54107">
        <ele>1823</ele>
        <time>2021-12-20T09:13:31.660Z</time>
      </trkpt>
      <trkpt lat="44.99695" lon="5.5411">
        <ele>1826</ele>
        <time>2021-12-20T09:13:46.672Z</time>
      </trkpt>
      <trkpt lat="44.99682" lon="5.54112">
        <ele>1827</ele>
        <time>2021-12-20T09:14:01.686Z</time>
      </trkpt>
      <trkpt lat="44.99677" lon="5.54114">
        <ele>1826</ele>
        <time>2021-12-20T09:14:11.704Z</time>
      </trkpt>
      <trkpt lat="44.99669" lon="5.5412">
        <ele>1827</ele>
        <time>2021-12-20T09:14:22.862Z</time>
      </trkpt>
      <trkpt lat="44.9966" lon="5.54123">
        <ele>1830</ele>
        <time>2021-12-20T09:14:33.898Z</time>
      </trkpt>
      <trkpt lat="44.99652" lon="5.54127">
        <ele>1832</ele>
        <time>2021-12-20T09:14:44.883Z</time>
      </trkpt>
      <trkpt lat="44.99645" lon="5.54132">
        <ele>1832</ele>
        <time>2021-12-20T09:14:55.879Z</time>
      </trkpt>
      <trkpt lat="44.99638" lon="5.54137">
        <ele>1834</ele>
        <time>2021-12-20T09:15:06.859Z</time>
      </trkpt>
      <trkpt lat="44.99628" lon="5.5414">
        <ele>1836</ele>
        <time>2021-12-20T09:15:16.872Z</time>
      </trkpt>
      <trkpt lat="44.99618" lon="5.54141">
        <ele>1836</ele>
        <time>2021-12-20T09:15:26.893Z</time>
      </trkpt>
      <trkpt lat="44.99611" lon="5.54145">
        <ele>1838</ele>
        <time>2021-12-20T09:15:37.866Z</time>
      </trkpt>
      <trkpt lat="44.99602" lon="5.54148">
        <ele>1838</ele>
        <time>2021-12-20T09:15:48.758Z</time>
      </trkpt>
      <trkpt lat="44.99595" lon="5.54152">
        <ele>1840</ele>
        <time>2021-12-20T09:15:58.857Z</time>
      </trkpt>
      <trkpt lat="44.99586" lon="5.54155">
        <ele>1842</ele>
        <time>2021-12-20T09:16:09.765Z</time>
      </trkpt>
      <trkpt lat="44.99578" lon="5.54159">
        <ele>1844</ele>
        <time>2021-12-20T09:16:19.778Z</time>
      </trkpt>
      <trkpt lat="44.99572" lon="5.54161">
        <ele>1846</ele>
        <time>2021-12-20T09:16:30.770Z</time>
      </trkpt>
      <trkpt lat="44.99565" lon="5.5416">
        <ele>1843</ele>
        <time>2021-12-20T09:16:40.777Z</time>
      </trkpt>
      <trkpt lat="44.99558" lon="5.54164">
        <ele>1844</ele>
        <time>2021-12-20T09:16:51.778Z</time>
      </trkpt>
      <trkpt lat="44.99553" lon="5.5417">
        <ele>1845</ele>
        <time>2021-12-20T09:17:01.956Z</time>
      </trkpt>
      <trkpt lat="44.99549" lon="5.54174">
        <ele>1846</ele>
        <time>2021-12-20T09:17:11.980Z</time>
      </trkpt>
      <trkpt lat="44.99544" lon="5.54179">
        <ele>1848</ele>
        <time>2021-12-20T09:17:22.177Z</time>
      </trkpt>
      <trkpt lat="44.99537" lon="5.54185">
        <ele>1852</ele>
        <time>2021-12-20T09:17:32.769Z</time>
      </trkpt>
      <trkpt lat="44.99533" lon="5.54176">
        <ele>1850</ele>
        <time>2021-12-20T09:17:42.811Z</time>
      </trkpt>
      <trkpt lat="44.9953" lon="5.54163">
        <ele>1851</ele>
        <time>2021-12-20T09:17:53.761Z</time>
      </trkpt>
      <trkpt lat="44.99531" lon="5.54151">
        <ele>1852</ele>
        <time>2021-12-20T09:18:07.322Z</time>
      </trkpt>
      <trkpt lat="44.99532" lon="5.54141">
        <ele>1853</ele>
        <time>2021-12-20T09:18:17.394Z</time>
      </trkpt>
      <trkpt lat="44.99524" lon="5.54142">
        <ele>1859</ele>
        <time>2021-12-20T09:18:32.424Z</time>
      </trkpt>
      <trkpt lat="44.99514" lon="5.54148">
        <ele>1864</ele>
        <time>2021-12-20T09:18:46.771Z</time>
      </trkpt>
      <trkpt lat="44.99508" lon="5.54152">
        <ele>1867</ele>
        <time>2021-12-20T09:18:56.771Z</time>
      </trkpt>
      <trkpt lat="44.99501" lon="5.54157">
        <ele>1867</ele>
        <time>2021-12-20T09:19:07.520Z</time>
      </trkpt>
      <trkpt lat="44.99494" lon="5.54162">
        <ele>1866</ele>
        <time>2021-12-20T09:19:17.587Z</time>
      </trkpt>
      <trkpt lat="44.99487" lon="5.54172">
        <ele>1867</ele>
        <time>2021-12-20T09:19:28.782Z</time>
      </trkpt>
      <trkpt lat="44.99484" lon="5.54179">
        <ele>1868</ele>
        <time>2021-12-20T09:19:39.744Z</time>
      </trkpt>
      <trkpt lat="44.99478" lon="5.54185">
        <ele>1872</ele>
        <time>2021-12-20T09:19:50.756Z</time>
      </trkpt>
      <trkpt lat="44.99473" lon="5.54191">
        <ele>1874</ele>
        <time>2021-12-20T09:20:00.844Z</time>
      </trkpt>
      <trkpt lat="44.99473" lon="5.54179">
        <ele>1873</ele>
        <time>2021-12-20T09:20:11.746Z</time>
      </trkpt>
      <trkpt lat="44.99473" lon="5.5417">
        <ele>1874</ele>
        <time>2021-12-20T09:20:21.762Z</time>
      </trkpt>
      <trkpt lat="44.99474" lon="5.54162">
        <ele>1877</ele>
        <time>2021-12-20T09:20:31.762Z</time>
      </trkpt>
      <trkpt lat="44.9947" lon="5.54162">
        <ele>1882</ele>
        <time>2021-12-20T09:20:47.804Z</time>
      </trkpt>
      <trkpt lat="44.9946" lon="5.5417">
        <ele>1883</ele>
        <time>2021-12-20T09:21:03.747Z</time>
      </trkpt>
      <trkpt lat="44.99456" lon="5.54174">
        <ele>1886</ele>
        <time>2021-12-20T09:21:13.769Z</time>
      </trkpt>
      <trkpt lat="44.99451" lon="5.5418">
        <ele>1885</ele>
        <time>2021-12-20T09:21:24.768Z</time>
      </trkpt>
      <trkpt lat="44.99444" lon="5.54192">
        <ele>1888</ele>
        <time>2021-12-20T09:21:42.798Z</time>
      </trkpt>
      <trkpt lat="44.9944" lon="5.54197">
        <ele>1889</ele>
        <time>2021-12-20T09:21:52.818Z</time>
      </trkpt>
      <trkpt lat="44.9944" lon="5.5419">
        <ele>1890</ele>
        <time>2021-12-20T09:22:06.767Z</time>
      </trkpt>
      <trkpt lat="44.99438" lon="5.54186">
        <ele>1891</ele>
        <time>2021-12-20T09:22:17.867Z</time>
      </trkpt>
      <trkpt lat="44.99432" lon="5.54196">
        <ele>1898</ele>
        <time>2021-12-20T09:22:32.893Z</time>
      </trkpt>
      <trkpt lat="44.99426" lon="5.54205">
        <ele>1900</ele>
        <time>2021-12-20T09:22:48.754Z</time>
      </trkpt>
      <trkpt lat="44.99425" lon="5.5421">
        <ele>1901</ele>
        <time>2021-12-20T09:22:58.771Z</time>
      </trkpt>
      <trkpt lat="44.99421" lon="5.54219">
        <ele>1902</ele>
        <time>2021-12-20T09:23:09.745Z</time>
      </trkpt>
      <trkpt lat="44.99417" lon="5.54225">
        <ele>1903</ele>
        <time>2021-12-20T09:23:19.748Z</time>
      </trkpt>
      <trkpt lat="44.99413" lon="5.54232">
        <ele>1902</ele>
        <time>2021-12-20T09:23:30.752Z</time>
      </trkpt>
      <trkpt lat="44.99409" lon="5.54241">
        <ele>1904</ele>
        <time>2021-12-20T09:23:41.749Z</time>
      </trkpt>
      <trkpt lat="44.99406" lon="5.54249">
        <ele>1906</ele>
        <time>2021-12-20T09:23:52.742Z</time>
      </trkpt>
      <trkpt lat="44.99403" lon="5.5425">
        <ele>1908</ele>
        <time>2021-12-20T09:24:02.768Z</time>
      </trkpt>
      <trkpt lat="44.99398" lon="5.54242">
        <ele>1907</ele>
        <time>2021-12-20T09:24:13.095Z</time>
      </trkpt>
      <trkpt lat="44.99397" lon="5.54235">
        <ele>1910</ele>
        <time>2021-12-20T09:24:23.831Z</time>
      </trkpt>
      <trkpt lat="44.99393" lon="5.54245">
        <ele>1911</ele>
        <time>2021-12-20T09:24:34.765Z</time>
      </trkpt>
      <trkpt lat="44.99389" lon="5.54261">
        <ele>1913</ele>
        <time>2021-12-20T09:24:53.144Z</time>
      </trkpt>
      <trkpt lat="44.99383" lon="5.54255">
        <ele>1914</ele>
        <time>2021-12-20T09:25:03.149Z</time>
      </trkpt>
      <trkpt lat="44.99379" lon="5.54253">
        <ele>1919</ele>
        <time>2021-12-20T09:25:15.777Z</time>
      </trkpt>
      <trkpt lat="44.99379" lon="5.54258">
        <ele>1918</ele>
        <time>2021-12-20T09:25:26.786Z</time>
      </trkpt>
      <trkpt lat="44.99378" lon="5.54264">
        <ele>1920</ele>
        <time>2021-12-20T09:25:37.776Z</time>
      </trkpt>
      <trkpt lat="44.99372" lon="5.54257">
        <ele>1919</ele>
        <time>2021-12-20T09:25:48.811Z</time>
      </trkpt>
      <trkpt lat="44.9937" lon="5.54243">
        <ele>1921</ele>
        <time>2021-12-20T09:26:03.262Z</time>
      </trkpt>
      <trkpt lat="44.99365" lon="5.54246">
        <ele>1925</ele>
        <time>2021-12-20T09:26:18.284Z</time>
      </trkpt>
      <trkpt lat="44.9936" lon="5.54252">
        <ele>1926</ele>
        <time>2021-12-20T09:26:28.293Z</time>
      </trkpt>
      <trkpt lat="44.99355" lon="5.54258">
        <ele>1928</ele>
        <time>2021-12-20T09:26:38.331Z</time>
      </trkpt>
      <trkpt lat="44.9935" lon="5.54265">
        <ele>1927</ele>
        <time>2021-12-20T09:26:50.756Z</time>
      </trkpt>
      <trkpt lat="44.99345" lon="5.54256">
        <ele>1929</ele>
        <time>2021-12-20T09:27:01.777Z</time>
      </trkpt>
      <trkpt lat="44.99342" lon="5.54247">
        <ele>1930</ele>
        <time>2021-12-20T09:27:11.786Z</time>
      </trkpt>
      <trkpt lat="44.99341" lon="5.54238">
        <ele>1934</ele>
        <time>2021-12-20T09:27:22.747Z</time>
      </trkpt>
      <trkpt lat="44.99335" lon="5.54236">
        <ele>1937</ele>
        <time>2021-12-20T09:27:38.479Z</time>
      </trkpt>
      <trkpt lat="44.99325" lon="5.54242">
        <ele>1942</ele>
        <time>2021-12-20T09:27:53.519Z</time>
      </trkpt>
      <trkpt lat="44.99318" lon="5.54245">
        <ele>1942</ele>
        <time>2021-12-20T09:28:03.529Z</time>
      </trkpt>
      <trkpt lat="44.99311" lon="5.54248">
        <ele>1943</ele>
        <time>2021-12-20T09:28:13.554Z</time>
      </trkpt>
      <trkpt lat="44.99304" lon="5.54252">
        <ele>1946</ele>
        <time>2021-12-20T09:28:23.612Z</time>
      </trkpt>
      <trkpt lat="44.99299" lon="5.54261">
        <ele>1945</ele>
        <time>2021-12-20T09:28:33.618Z</time>
      </trkpt>
      <trkpt lat="44.99301" lon="5.54275">
        <ele>1949</ele>
        <time>2021-12-20T09:28:46.746Z</time>
      </trkpt>
      <trkpt lat="44.99303" lon="5.54285">
        <ele>1951</ele>
        <time>2021-12-20T09:28:56.775Z</time>
      </trkpt>
      <trkpt lat="44.99305" lon="5.54294">
        <ele>1952</ele>
        <time>2021-12-20T09:29:07.777Z</time>
      </trkpt>
      <trkpt lat="44.99309" lon="5.54306">
        <ele>1954</ele>
        <time>2021-12-20T09:29:18.696Z</time>
      </trkpt>
      <trkpt lat="44.99313" lon="5.54317">
        <ele>1957</ele>
        <time>2021-12-20T09:29:29.773Z</time>
      </trkpt>
      <trkpt lat="44.99305" lon="5.54319">
        <ele>1958</ele>
        <time>2021-12-20T09:29:40.778Z</time>
      </trkpt>
      <trkpt lat="44.99295" lon="5.54316">
        <ele>1956</ele>
        <time>2021-12-20T09:29:51.750Z</time>
      </trkpt>
      <trkpt lat="44.99289" lon="5.54314">
        <ele>1958</ele>
        <time>2021-12-20T09:30:01.761Z</time>
      </trkpt>
      <trkpt lat="44.9928" lon="5.54312">
        <ele>1959</ele>
        <time>2021-12-20T09:30:12.761Z</time>
      </trkpt>
      <trkpt lat="44.99273" lon="5.54311">
        <ele>1961</ele>
        <time>2021-12-20T09:30:22.777Z</time>
      </trkpt>
      <trkpt lat="44.99267" lon="5.54307">
        <ele>1962</ele>
        <time>2021-12-20T09:30:33.756Z</time>
      </trkpt>
      <trkpt lat="44.99261" lon="5.54303">
        <ele>1963</ele>
        <time>2021-12-20T09:30:43.776Z</time>
      </trkpt>
      <trkpt lat="44.99256" lon="5.543">
        <ele>1963</ele>
        <time>2021-12-20T09:30:53.781Z</time>
      </trkpt>
      <trkpt lat="44.9925" lon="5.54296">
        <ele>1966</ele>
        <time>2021-12-20T09:31:03.875Z</time>
      </trkpt>
      <trkpt lat="44.99243" lon="5.54292">
        <ele>1967</ele>
        <time>2021-12-20T09:31:14.772Z</time>
      </trkpt>
      <trkpt lat="44.99236" lon="5.54287">
        <ele>1968</ele>
        <time>2021-12-20T09:31:24.774Z</time>
      </trkpt>
      <trkpt lat="44.9923" lon="5.54282">
        <ele>1970</ele>
        <time>2021-12-20T09:31:34.780Z</time>
      </trkpt>
      <trkpt lat="44.99225" lon="5.54279">
        <ele>1973</ele>
        <time>2021-12-20T09:31:45.753Z</time>
      </trkpt>
      <trkpt lat="44.99222" lon="5.54282">
        <ele>1975</ele>
        <time>2021-12-20T09:32:18.926Z</time>
      </trkpt>
      <trkpt lat="44.99221" lon="5.54282">
        <ele>1975</ele>
        <time>2021-12-20T09:33:08.640Z</time>
      </trkpt>
      <trkpt lat="44.99222" lon="5.54281">
        <ele>1979</ele>
        <time>2021-12-20T09:33:28.785Z</time>
      </trkpt>
      <trkpt lat="44.99222" lon="5.54272">
        <ele>1979</ele>
        <time>2021-12-20T09:33:39.751Z</time>
      </trkpt>
      <trkpt lat="44.99221" lon="5.54265">
        <ele>1978</ele>
        <time>2021-12-20T09:33:50.766Z</time>
      </trkpt>
      <trkpt lat="44.99221" lon="5.54264">
        <ele>1978</ele>
        <time>2021-12-20T09:34:45.767Z</time>
      </trkpt>
      <trkpt lat="44.99219" lon="5.54256">
        <ele>1977</ele>
        <time>2021-12-20T09:34:56.773Z</time>
      </trkpt>
      <trkpt lat="44.99218" lon="5.54253">
        <ele>1978</ele>
        <time>2021-12-20T09:36:20.770Z</time>
      </trkpt>
      <trkpt lat="44.99215" lon="5.54244">
        <ele>1978</ele>
        <time>2021-12-20T09:36:31.771Z</time>
      </trkpt>
      <trkpt lat="44.99211" lon="5.54237">
        <ele>1986</ele>
        <time>2021-12-20T09:36:42.793Z</time>
      </trkpt>
      <trkpt lat="44.99208" lon="5.54233">
        <ele>1986</ele>
        <time>2021-12-20T09:36:52.854Z</time>
      </trkpt>
      <trkpt lat="44.99207" lon="5.54227">
        <ele>1986</ele>
        <time>2021-12-20T09:37:03.823Z</time>
      </trkpt>
      <trkpt lat="44.99205" lon="5.54228">
        <ele>1989</ele>
        <time>2021-12-20T09:37:14.032Z</time>
      </trkpt>
      <trkpt lat="44.99201" lon="5.54226">
        <ele>1990</ele>
        <time>2021-12-20T09:37:34.066Z</time>
      </trkpt>
      <trkpt lat="44.99201" lon="5.54212">
        <ele>1989</ele>
        <time>2021-12-20T09:37:49.117Z</time>
      </trkpt>
      <trkpt lat="44.99203" lon="5.54202">
        <ele>1990</ele>
        <time>2021-12-20T09:37:59.144Z</time>
      </trkpt>
      <trkpt lat="44.99207" lon="5.54189">
        <ele>1994</ele>
        <time>2021-12-20T09:38:11.748Z</time>
      </trkpt>
      <trkpt lat="44.99207" lon="5.54181">
        <ele>1996</ele>
        <time>2021-12-20T09:38:21.763Z</time>
      </trkpt>
      <trkpt lat="44.99208" lon="5.54173">
        <ele>1992</ele>
        <time>2021-12-20T09:38:31.772Z</time>
      </trkpt>
      <trkpt lat="44.9921" lon="5.54162">
        <ele>1995</ele>
        <time>2021-12-20T09:38:42.764Z</time>
      </trkpt>
      <trkpt lat="44.99211" lon="5.54153">
        <ele>1995</ele>
        <time>2021-12-20T09:38:52.770Z</time>
      </trkpt>
      <trkpt lat="44.99213" lon="5.54143">
        <ele>1996</ele>
        <time>2021-12-20T09:39:03.756Z</time>
      </trkpt>
      <trkpt lat="44.99213" lon="5.54133">
        <ele>1997</ele>
        <time>2021-12-20T09:39:14.788Z</time>
      </trkpt>
      <trkpt lat="44.99216" lon="5.54124">
        <ele>1998</ele>
        <time>2021-12-20T09:39:25.770Z</time>
      </trkpt>
      <trkpt lat="44.99218" lon="5.54114">
        <ele>1998</ele>
        <time>2021-12-20T09:39:35.783Z</time>
      </trkpt>
      <trkpt lat="44.9922" lon="5.54109">
        <ele>2001</ele>
        <time>2021-12-20T09:39:49.372Z</time>
      </trkpt>
      <trkpt lat="44.99216" lon="5.54102">
        <ele>2003</ele>
        <time>2021-12-20T09:39:59.387Z</time>
      </trkpt>
      <trkpt lat="44.99217" lon="5.54092">
        <ele>2004</ele>
        <time>2021-12-20T09:40:09.387Z</time>
      </trkpt>
      <trkpt lat="44.99217" lon="5.54082">
        <ele>2006</ele>
        <time>2021-12-20T09:40:19.452Z</time>
      </trkpt>
      <trkpt lat="44.99216" lon="5.54072">
        <ele>2007</ele>
        <time>2021-12-20T09:40:29.522Z</time>
      </trkpt>
      <trkpt lat="44.99214" lon="5.54058">
        <ele>2009</ele>
        <time>2021-12-20T09:40:44.539Z</time>
      </trkpt>
      <trkpt lat="44.99214" lon="5.54048">
        <ele>2011</ele>
        <time>2021-12-20T09:40:54.570Z</time>
      </trkpt>
      <trkpt lat="44.99219" lon="5.54043">
        <ele>2013</ele>
        <time>2021-12-20T09:41:04.601Z</time>
      </trkpt>
      <trkpt lat="44.99224" lon="5.54039">
        <ele>2014</ele>
        <time>2021-12-20T09:41:14.612Z</time>
      </trkpt>
      <trkpt lat="44.99227" lon="5.54033">
        <ele>2014</ele>
        <time>2021-12-20T09:41:24.656Z</time>
      </trkpt>
      <trkpt lat="44.99232" lon="5.54028">
        <ele>2016</ele>
        <time>2021-12-20T09:41:34.656Z</time>
      </trkpt>
      <trkpt lat="44.99242" lon="5.54021">
        <ele>2018</ele>
        <time>2021-12-20T09:41:49.683Z</time>
      </trkpt>
      <trkpt lat="44.99244" lon="5.54018">
        <ele>2022</ele>
        <time>2021-12-20T09:41:59.705Z</time>
      </trkpt>
      <trkpt lat="44.9925" lon="5.54013">
        <ele>2023</ele>
        <time>2021-12-20T09:42:12.754Z</time>
      </trkpt>
      <trkpt lat="44.99255" lon="5.54006">
        <ele>2024</ele>
        <time>2021-12-20T09:42:22.783Z</time>
      </trkpt>
      <trkpt lat="44.99262" lon="5.53998">
        <ele>2026</ele>
        <time>2021-12-20T09:42:33.764Z</time>
      </trkpt>
      <trkpt lat="44.9927" lon="5.53989">
        <ele>2028</ele>
        <time>2021-12-20T09:42:49.827Z</time>
      </trkpt>
      <trkpt lat="44.99277" lon="5.53981">
        <ele>2031</ele>
        <time>2021-12-20T09:43:04.786Z</time>
      </trkpt>
      <trkpt lat="44.99276" lon="5.53977">
        <ele>2033</ele>
        <time>2021-12-20T09:43:14.837Z</time>
      </trkpt>
      <trkpt lat="44.99269" lon="5.53975">
        <ele>2035</ele>
        <time>2021-12-20T09:43:24.876Z</time>
      </trkpt>
      <trkpt lat="44.99262" lon="5.53972">
        <ele>2037</ele>
        <time>2021-12-20T09:43:34.877Z</time>
      </trkpt>
      <trkpt lat="44.99257" lon="5.53969">
        <ele>2039</ele>
        <time>2021-12-20T09:43:44.948Z</time>
      </trkpt>
      <trkpt lat="44.99249" lon="5.53966">
        <ele>2039</ele>
        <time>2021-12-20T09:43:57.776Z</time>
      </trkpt>
      <trkpt lat="44.99242" lon="5.53958">
        <ele>2041</ele>
        <time>2021-12-20T09:44:09.934Z</time>
      </trkpt>
      <trkpt lat="44.99236" lon="5.53953">
        <ele>2041</ele>
        <time>2021-12-20T09:44:24.975Z</time>
      </trkpt>
      <trkpt lat="44.99241" lon="5.53949">
        <ele>2043</ele>
        <time>2021-12-20T09:44:35.042Z</time>
      </trkpt>
      <trkpt lat="44.99248" lon="5.53941">
        <ele>2045</ele>
        <time>2021-12-20T09:44:50.078Z</time>
      </trkpt>
      <trkpt lat="44.99251" lon="5.53937">
        <ele>2048</ele>
        <time>2021-12-20T09:45:00.106Z</time>
      </trkpt>
      <trkpt lat="44.99246" lon="5.53931">
        <ele>2051</ele>
        <time>2021-12-20T09:45:12.791Z</time>
      </trkpt>
      <trkpt lat="44.99249" lon="5.53928">
        <ele>2052</ele>
        <time>2021-12-20T09:45:23.758Z</time>
      </trkpt>
      <trkpt lat="44.99253" lon="5.53926">
        <ele>2055</ele>
        <time>2021-12-20T09:45:33.766Z</time>
      </trkpt>
      <trkpt lat="44.99259" lon="5.53921">
        <ele>2058</ele>
        <time>2021-12-20T09:45:44.777Z</time>
      </trkpt>
      <trkpt lat="44.99262" lon="5.53917">
        <ele>2058</ele>
        <time>2021-12-20T09:45:55.188Z</time>
      </trkpt>
      <trkpt lat="44.99256" lon="5.53912">
        <ele>2060</ele>
        <time>2021-12-20T09:46:05.783Z</time>
      </trkpt>
      <trkpt lat="44.9925" lon="5.53904">
        <ele>2061</ele>
        <time>2021-12-20T09:46:16.787Z</time>
      </trkpt>
      <trkpt lat="44.99251" lon="5.53899">
        <ele>2062</ele>
        <time>2021-12-20T09:46:27.763Z</time>
      </trkpt>
      <trkpt lat="44.99251" lon="5.53888">
        <ele>2068</ele>
        <time>2021-12-20T09:46:45.286Z</time>
      </trkpt>
      <trkpt lat="44.99253" lon="5.53889">
        <ele>2066</ele>
        <time>2021-12-20T09:46:58.790Z</time>
      </trkpt>
      <trkpt lat="44.99258" lon="5.53891">
        <ele>2066</ele>
        <time>2021-12-20T09:47:09.770Z</time>
      </trkpt>
      <trkpt lat="44.99266" lon="5.5389">
        <ele>2068</ele>
        <time>2021-12-20T09:47:20.322Z</time>
      </trkpt>
      <trkpt lat="44.99274" lon="5.53887">
        <ele>2070</ele>
        <time>2021-12-20T09:47:31.769Z</time>
      </trkpt>
      <trkpt lat="44.99281" lon="5.53884">
        <ele>2072</ele>
        <time>2021-12-20T09:47:41.773Z</time>
      </trkpt>
      <trkpt lat="44.99286" lon="5.53879">
        <ele>2074</ele>
        <time>2021-12-20T09:47:52.774Z</time>
      </trkpt>
      <trkpt lat="44.99292" lon="5.53874">
        <ele>2076</ele>
        <time>2021-12-20T09:48:02.784Z</time>
      </trkpt>
      <trkpt lat="44.993" lon="5.53864">
        <ele>2075</ele>
        <time>2021-12-20T09:48:13.748Z</time>
      </trkpt>
      <trkpt lat="44.99304" lon="5.53856">
        <ele>2077</ele>
        <time>2021-12-20T09:48:30.516Z</time>
      </trkpt>
      <trkpt lat="44.99304" lon="5.53858">
        <ele>2079</ele>
        <time>2021-12-20T09:49:01.766Z</time>
      </trkpt>
      <trkpt lat="44.99303" lon="5.53857">
        <ele>2078</ele>
        <time>2021-12-20T09:49:13.769Z</time>
      </trkpt>
      <trkpt lat="44.99302" lon="5.53855">
        <ele>2079</ele>
        <time>2021-12-20T09:49:26.842Z</time>
      </trkpt>
      <trkpt lat="44.99301" lon="5.53859">
        <ele>2081</ele>
        <time>2021-12-20T09:49:58.463Z</time>
      </trkpt>
    </trkseg>
  </trk>
</gpx>